createdAt,value
2019-05-09T00:00:33.398Z,10.14
2019-05-09T00:01:33.454Z,10.11
2019-05-09T00:02:33.604Z,10.13
2019-05-09T00:03:33.350Z,10.14
2019-05-09T00:04:33.371Z,10.11
2019-05-09T00:05:33.012Z,10.09
2019-05-09T00:06:31.147Z,10.06
2019-05-09T00:07:31.134Z,10.08
2019-05-09T00:08:33.312Z,10.09
2019-05-09T00:09:33.427Z,10.09
2019-05-09T00:10:39.546Z,10.08
2019-05-09T00:11:33.454Z,10.08
2019-05-09T00:12:33.406Z,10.08
2019-05-09T00:13:31.279Z,10.06
2019-05-09T00:14:31.239Z,10.08
2019-05-09T00:15:33.235Z,10.05
2019-05-09T00:16:33.370Z,10.06
2019-05-09T00:17:31.151Z,10.06
2019-05-09T00:18:33.413Z,10.08
2019-05-09T00:19:33.207Z,10.08
2019-05-09T00:20:33.108Z,10.08
2019-05-09T00:21:33.201Z,10.08
2019-05-09T00:22:33.165Z,10.06
2019-05-09T00:23:33.169Z,10.06
2019-05-09T00:24:33.227Z,10.06
2019-05-09T00:25:31.146Z,10.08
2019-05-09T00:26:31.136Z,10.08
2019-05-09T00:27:33.175Z,10.08
2019-05-09T00:28:33.759Z,10.08
2019-05-09T00:29:33.338Z,10.08
2019-05-09T00:30:33.168Z,10.06
2019-05-09T00:31:31.234Z,10.05
2019-05-09T00:32:31.232Z,10.06
2019-05-09T00:33:31.170Z,10.06
2019-05-09T00:34:31.200Z,10.06
2019-05-09T00:35:33.642Z,10.05
2019-05-09T00:36:33.357Z,10.06
2019-05-09T00:37:32.952Z,10.06
2019-05-09T00:38:33.256Z,10.06
2019-05-09T00:39:31.122Z,10.08
2019-05-09T00:40:31.129Z,10.08
2019-05-09T00:41:33.040Z,10.09
2019-05-09T00:42:33.307Z,10.08
2019-05-09T00:43:31.134Z,10.06
2019-05-09T00:44:31.105Z,10.06
2019-05-09T00:45:33.213Z,10.06
2019-05-09T00:46:31.197Z,10.05
2019-05-09T00:47:33.007Z,10.05
2019-05-09T00:48:33.500Z,10.04
2019-05-09T00:49:31.209Z,10.04
2019-05-09T00:50:31.124Z,10.04
2019-05-09T00:51:31.246Z,10.04
2019-05-09T00:52:31.242Z,10.02
2019-05-09T00:53:31.242Z,10.02
2019-05-09T00:54:33.365Z,10.01
2019-05-09T00:55:33.276Z,10.02
2019-05-09T00:56:33.104Z,10.01
2019-05-09T00:57:33.474Z,10.01
2019-05-09T00:58:33.346Z,10.01
2019-05-09T00:59:33.164Z,10.02
2019-05-09T01:00:33.230Z,10.02
2019-05-09T01:01:31.207Z,10.04
2019-05-09T01:02:31.249Z,10.05
2019-05-09T01:03:31.252Z,10.04
2019-05-09T01:04:33.320Z,10.04
2019-05-09T01:05:31.217Z,10.02
2019-05-09T01:06:31.250Z,10.01
2019-05-09T01:07:33.475Z,10.01
2019-05-09T01:08:33.397Z,9.98
2019-05-09T01:09:33.201Z,9.97
2019-05-09T01:10:31.264Z,9.95
2019-05-09T01:11:33.227Z,9.95
2019-05-09T01:12:31.258Z,9.93
2019-05-09T01:13:31.223Z,9.91
2019-05-09T01:14:31.193Z,9.91
2019-05-09T01:15:33.282Z,9.91
2019-05-09T01:16:33.326Z,9.93
2019-05-09T01:17:33.359Z,9.91
2019-05-09T01:18:33.153Z,9.90
2019-05-09T01:19:31.235Z,9.87
2019-05-09T01:20:33.253Z,9.87
2019-05-09T01:21:33.242Z,9.84
2019-05-09T01:22:33.173Z,9.83
2019-05-09T01:23:31.193Z,9.83
2019-05-09T01:24:31.197Z,9.80
2019-05-09T01:25:33.360Z,9.79
2019-05-09T01:26:33.406Z,9.78
2019-05-09T01:27:31.335Z,9.75
2019-05-09T01:28:31.273Z,9.75
2019-05-09T01:29:33.141Z,9.73
2019-05-09T01:30:33.435Z,9.72
2019-05-09T01:31:33.131Z,9.69
2019-05-09T01:32:31.263Z,9.68
2019-05-09T01:33:33.219Z,9.66
2019-05-09T01:34:33.117Z,9.64
2019-05-09T01:35:31.161Z,9.62
2019-05-09T01:36:31.207Z,9.61
2019-05-09T01:37:31.251Z,9.60
2019-05-09T01:38:31.261Z,9.60
2019-05-09T01:39:33.510Z,9.58
2019-05-09T01:40:33.174Z,9.55
2019-05-09T01:41:34.030Z,9.58
2019-05-09T01:42:31.169Z,9.60
2019-05-09T01:43:33.649Z,9.61
2019-05-09T01:44:33.315Z,9.61
2019-05-09T01:45:31.194Z,9.61
2019-05-09T01:46:31.256Z,9.61
2019-05-09T01:47:31.238Z,9.62
2019-05-09T01:48:31.136Z,9.62
2019-05-09T01:49:31.267Z,9.62
2019-05-09T01:50:31.170Z,9.62
2019-05-09T01:51:31.174Z,9.62
2019-05-09T01:52:33.681Z,9.62
2019-05-09T01:53:33.305Z,9.62
2019-05-09T01:54:33.101Z,9.62
2019-05-09T01:55:31.240Z,9.62
2019-05-09T01:56:31.219Z,9.61
2019-05-09T01:57:31.163Z,9.60
2019-05-09T01:58:31.178Z,9.61
2019-05-09T01:59:33.664Z,9.60
2019-05-09T02:00:33.189Z,9.58
2019-05-09T02:01:31.283Z,9.57
2019-05-09T02:02:31.285Z,9.57
2019-05-09T02:03:33.502Z,9.57
2019-05-09T02:04:33.291Z,9.55
2019-05-09T02:05:31.218Z,9.54
2019-05-09T02:06:32.762Z,9.54
2019-05-09T02:07:33.214Z,9.53
2019-05-09T02:08:31.210Z,9.51
2019-05-09T02:09:31.213Z,9.53
2019-05-09T02:10:31.240Z,9.53
2019-05-09T02:11:41.617Z,9.53
2019-05-09T02:12:31.302Z,9.51
2019-05-09T02:13:33.634Z,9.51
2019-05-09T02:14:31.229Z,9.50
2019-05-09T02:15:31.231Z,9.49
2019-05-09T02:16:31.246Z,9.49
2019-05-09T02:17:33.358Z,9.47
2019-05-09T02:18:33.310Z,9.49
2019-05-09T02:19:33.182Z,9.47
2019-05-09T02:20:32.812Z,9.46
2019-05-09T02:21:31.277Z,9.46
2019-05-09T02:22:31.253Z,9.46
2019-05-09T02:23:31.167Z,9.47
2019-05-09T02:24:31.226Z,9.46
2019-05-09T02:25:32.956Z,9.47
2019-05-09T02:26:33.342Z,9.47
2019-05-09T02:27:33.236Z,9.44
2019-05-09T02:28:31.255Z,9.44
2019-05-09T02:29:33.602Z,9.43
2019-05-09T02:30:31.236Z,9.39
2019-05-09T02:31:31.306Z,9.38
2019-05-09T02:32:34.475Z,9.38
2019-05-09T02:33:33.912Z,9.36
2019-05-09T02:34:31.232Z,9.36
2019-05-09T02:35:36.245Z,9.34
2019-05-09T02:36:31.250Z,9.36
2019-05-09T02:37:31.243Z,9.34
2019-05-09T02:38:31.314Z,9.34
2019-05-09T02:39:31.243Z,9.32
2019-05-09T02:40:31.307Z,9.31
2019-05-09T02:41:31.258Z,9.31
2019-05-09T02:42:31.331Z,9.28
2019-05-09T02:43:31.268Z,9.27
2019-05-09T02:44:31.323Z,9.27
2019-05-09T02:45:31.325Z,9.27
2019-05-09T02:46:31.348Z,9.25
2019-05-09T02:47:31.324Z,9.23
2019-05-09T02:48:31.264Z,9.20
2019-05-09T02:49:31.263Z,9.19
2019-05-09T02:50:31.342Z,9.18
2019-05-09T02:51:31.259Z,9.16
2019-05-09T02:52:31.231Z,9.16
2019-05-09T02:53:31.261Z,9.13
2019-05-09T02:54:31.347Z,9.12
2019-05-09T02:55:31.280Z,9.12
2019-05-09T02:56:31.263Z,9.11
2019-05-09T02:57:31.343Z,9.11
2019-05-09T02:58:31.280Z,9.09
2019-05-09T02:59:31.269Z,9.09
2019-05-09T03:00:31.266Z,9.09
2019-05-09T03:01:31.342Z,9.08
2019-05-09T03:02:31.364Z,9.08
2019-05-09T03:03:31.332Z,9.08
2019-05-09T03:04:31.343Z,9.07
2019-05-09T03:05:31.239Z,9.07
2019-05-09T03:06:31.340Z,9.05
2019-05-09T03:07:31.345Z,9.04
2019-05-09T03:08:31.368Z,9.02
2019-05-09T03:09:31.454Z,9.02
2019-05-09T03:10:31.269Z,9.02
2019-05-09T03:11:31.337Z,9.02
2019-05-09T03:12:35.559Z,9.02
2019-05-09T03:13:31.260Z,9.01
2019-05-09T03:14:31.333Z,9.02
2019-05-09T03:15:31.341Z,9.01
2019-05-09T03:16:31.263Z,9.05
2019-05-09T03:17:31.335Z,9.05
2019-05-09T03:18:31.281Z,9.04
2019-05-09T03:19:31.340Z,9.05
2019-05-09T03:20:31.289Z,9.05
2019-05-09T03:21:31.287Z,9.07
2019-05-09T03:22:31.354Z,9.07
2019-05-09T03:23:31.292Z,9.05
2019-05-09T03:24:31.298Z,9.05
2019-05-09T03:25:31.358Z,9.05
2019-05-09T03:26:31.309Z,9.05
2019-05-09T03:27:31.357Z,9.04
2019-05-09T03:28:31.355Z,9.02
2019-05-09T03:29:31.296Z,9.02
2019-05-09T03:30:31.314Z,9.02
2019-05-09T03:31:31.314Z,9.02
2019-05-09T03:32:31.377Z,9.02
2019-05-09T03:33:35.578Z,9.01
2019-05-09T03:34:31.431Z,9.01
2019-05-09T03:35:31.299Z,9.02
2019-05-09T03:36:31.362Z,9.01
2019-05-09T03:37:31.370Z,9.00
2019-05-09T03:38:31.292Z,8.98
2019-05-09T03:39:31.375Z,8.98
2019-05-09T03:40:31.223Z,8.98
2019-05-09T03:41:31.208Z,8.98
2019-05-09T03:42:42.585Z,8.98
2019-05-09T03:43:31.254Z,8.97
2019-05-09T03:44:31.222Z,8.97
2019-05-09T03:45:31.317Z,8.97
2019-05-09T03:46:31.313Z,8.97
2019-05-09T03:47:31.300Z,8.98
2019-05-09T03:48:31.321Z,8.97
2019-05-09T03:49:31.318Z,8.97
2019-05-09T03:50:31.304Z,8.97
2019-05-09T03:51:31.307Z,8.96
2019-05-09T03:52:31.373Z,8.96
2019-05-09T03:53:31.362Z,8.96
2019-05-09T03:54:31.375Z,8.96
2019-05-09T03:55:31.375Z,8.94
2019-05-09T03:56:31.305Z,8.93
2019-05-09T03:57:31.305Z,8.94
2019-05-09T03:58:31.321Z,8.93
2019-05-09T03:59:31.430Z,8.93
2019-05-09T04:00:31.200Z,8.91
2019-05-09T04:01:31.215Z,8.93
2019-05-09T04:02:31.253Z,8.89
2019-05-09T04:03:31.256Z,8.89
2019-05-09T04:04:31.315Z,8.89
2019-05-09T04:05:31.263Z,8.87
2019-05-09T04:06:31.273Z,8.87
2019-05-09T04:07:31.247Z,8.87
2019-05-09T04:08:31.204Z,8.87
2019-05-09T04:09:31.228Z,8.89
2019-05-09T04:10:31.191Z,8.87
2019-05-09T04:11:31.230Z,8.89
2019-05-09T04:12:31.183Z,8.87
2019-05-09T04:13:31.182Z,8.87
2019-05-09T04:14:31.182Z,8.87
2019-05-09T04:15:31.197Z,8.86
2019-05-09T04:16:31.281Z,8.87
2019-05-09T04:17:31.280Z,8.87
2019-05-09T04:18:31.185Z,8.87
2019-05-09T04:19:31.293Z,8.86
2019-05-09T04:20:31.393Z,8.85
2019-05-09T04:21:31.322Z,8.86
2019-05-09T04:22:31.324Z,8.87
2019-05-09T04:23:31.325Z,8.87
2019-05-09T04:24:31.402Z,8.86
2019-05-09T04:25:31.398Z,8.86
2019-05-09T04:26:31.339Z,8.87
2019-05-09T04:27:31.401Z,8.89
2019-05-09T04:28:31.331Z,8.87
2019-05-09T04:29:31.330Z,8.89
2019-05-09T04:30:31.322Z,8.89
2019-05-09T04:31:31.314Z,8.90
2019-05-09T04:32:31.342Z,8.90
2019-05-09T04:33:31.338Z,8.91
2019-05-09T04:34:31.337Z,8.90
2019-05-09T04:35:31.290Z,8.93
2019-05-09T04:36:31.220Z,8.93
2019-05-09T04:37:31.293Z,8.94
2019-05-09T04:38:31.243Z,8.97
2019-05-09T04:39:31.362Z,8.97
2019-05-09T04:40:32.150Z,9.00
2019-05-09T04:41:31.421Z,8.98
2019-05-09T04:42:35.085Z,9.00
2019-05-09T04:43:35.461Z,9.01
2019-05-09T04:44:31.407Z,9.02
2019-05-09T04:45:33.246Z,9.04
2019-05-09T04:46:31.415Z,9.05
2019-05-09T04:47:33.871Z,9.05
2019-05-09T04:48:31.427Z,9.07
2019-05-09T04:49:39.535Z,9.07
2019-05-09T04:50:31.361Z,9.08
2019-05-09T04:51:31.421Z,9.08
2019-05-09T04:52:31.350Z,9.11
2019-05-09T04:53:31.416Z,9.11
2019-05-09T04:54:31.412Z,9.13
2019-05-09T04:55:31.375Z,9.13
2019-05-09T04:56:31.418Z,9.15
2019-05-09T04:57:31.345Z,9.18
2019-05-09T04:58:31.424Z,9.19
2019-05-09T04:59:31.353Z,9.20
2019-05-09T05:00:31.354Z,9.20
2019-05-09T05:01:31.420Z,9.23
2019-05-09T05:02:31.366Z,9.23
2019-05-09T05:03:31.441Z,9.27
2019-05-09T05:04:31.457Z,9.28
2019-05-09T05:05:31.436Z,9.32
2019-05-09T05:06:31.358Z,9.32
2019-05-09T05:07:31.422Z,9.32
2019-05-09T05:08:31.363Z,9.34
2019-05-09T05:09:31.426Z,9.31
2019-05-09T05:10:31.429Z,9.34
2019-05-09T05:11:31.364Z,9.32
2019-05-09T05:12:31.424Z,9.34
2019-05-09T05:13:31.370Z,9.38
2019-05-09T05:14:31.430Z,9.40
2019-05-09T05:15:31.364Z,9.43
2019-05-09T05:16:31.363Z,9.44
2019-05-09T05:17:31.365Z,9.44
2019-05-09T05:18:31.328Z,9.44
2019-05-09T05:19:31.698Z,9.49
2019-05-09T05:20:31.366Z,9.49
2019-05-09T05:21:31.448Z,9.51
2019-05-09T05:22:31.447Z,9.54
2019-05-09T05:23:31.368Z,9.55
2019-05-09T05:24:31.369Z,9.57
2019-05-09T05:25:31.367Z,9.58
2019-05-09T05:26:31.371Z,9.61
2019-05-09T05:27:31.372Z,9.61
2019-05-09T05:29:31.441Z,9.55
2019-05-09T05:30:31.333Z,9.55
2019-05-09T05:31:31.441Z,9.58
2019-05-09T05:32:31.442Z,9.60
2019-05-09T05:33:31.380Z,9.61
2019-05-09T05:34:31.378Z,9.65
2019-05-09T05:35:31.387Z,9.68
2019-05-09T05:36:31.384Z,9.71
2019-05-09T05:37:31.447Z,9.72
2019-05-09T05:38:31.449Z,9.76
2019-05-09T05:39:31.459Z,9.78
2019-05-09T05:40:33.663Z,9.83
2019-05-09T05:41:31.428Z,9.79
2019-05-09T05:42:31.434Z,9.80
2019-05-09T05:43:43.282Z,9.80
2019-05-09T05:44:31.401Z,9.86
2019-05-09T05:45:31.355Z,10.01
2019-05-09T05:46:31.439Z,10.20
2019-05-09T05:47:31.426Z,10.39
2019-05-09T05:48:31.441Z,10.58
2019-05-09T05:49:31.389Z,10.65
2019-05-09T05:50:31.449Z,10.64
2019-05-09T05:51:31.389Z,10.64
2019-05-09T05:52:31.413Z,10.74
2019-05-09T05:53:31.437Z,10.81
2019-05-09T05:54:31.332Z,10.90
2019-05-09T05:55:31.447Z,11.02
2019-05-09T05:56:31.331Z,11.10
2019-05-09T05:57:31.448Z,11.17
2019-05-09T05:58:31.390Z,11.31
2019-05-09T05:59:31.452Z,11.45
2019-05-09T06:00:31.414Z,11.47
2019-05-09T06:01:31.348Z,11.49
2019-05-09T06:02:31.423Z,11.51
2019-05-09T06:03:31.340Z,11.47
2019-05-09T06:04:31.446Z,11.40
2019-05-09T06:05:31.369Z,11.38
2019-05-09T06:06:33.077Z,11.20
2019-05-09T06:07:31.451Z,11.00
2019-05-09T06:08:31.337Z,10.95
2019-05-09T06:09:31.445Z,11.07
2019-05-09T06:10:31.423Z,11.17
2019-05-09T06:11:31.461Z,11.27
2019-05-09T06:12:31.461Z,11.31
2019-05-09T06:13:31.413Z,11.35
2019-05-09T06:14:31.462Z,11.32
2019-05-09T06:15:31.402Z,11.42
2019-05-09T06:16:31.387Z,11.56
2019-05-09T06:17:31.461Z,11.72
2019-05-09T06:18:31.466Z,11.75
2019-05-09T06:19:31.471Z,11.78
2019-05-09T06:20:31.447Z,11.89
2019-05-09T06:21:31.470Z,11.83
2019-05-09T06:22:31.382Z,11.72
2019-05-09T06:23:31.403Z,11.69
2019-05-09T06:24:31.439Z,11.62
2019-05-09T06:25:31.394Z,11.67
2019-05-09T06:26:31.368Z,11.62
2019-05-09T06:27:31.472Z,11.73
2019-05-09T06:28:31.481Z,11.71
2019-05-09T06:29:31.422Z,11.73
2019-05-09T06:30:31.650Z,11.75
2019-05-09T06:31:31.494Z,11.56
2019-05-09T06:32:31.417Z,11.53
2019-05-09T06:33:31.416Z,11.51
2019-05-09T06:34:31.382Z,11.50
2019-05-09T06:35:31.493Z,11.54
2019-05-09T06:36:31.400Z,11.51
2019-05-09T06:37:31.468Z,11.51
2019-05-09T06:38:31.546Z,11.50
2019-05-09T06:39:31.439Z,11.53
2019-05-09T06:40:31.427Z,11.50
2019-05-09T06:41:31.490Z,11.51
2019-05-09T06:42:31.492Z,11.49
2019-05-09T06:43:31.424Z,11.46
2019-05-09T06:44:31.503Z,11.51
2019-05-09T06:45:31.420Z,11.49
2019-05-09T06:46:31.520Z,11.49
2019-05-09T06:47:31.434Z,11.47
2019-05-09T06:48:31.506Z,11.35
2019-05-09T06:49:32.073Z,11.33
2019-05-09T06:50:31.497Z,11.35
2019-05-09T06:51:31.433Z,11.38
2019-05-09T06:52:31.436Z,11.36
2019-05-09T06:53:31.458Z,11.35
2019-05-09T06:54:31.501Z,11.39
2019-05-09T06:55:31.505Z,11.45
2019-05-09T06:56:31.438Z,11.49
2019-05-09T06:57:31.504Z,11.51
2019-05-09T06:58:31.504Z,11.57
2019-05-09T06:59:31.516Z,11.62
2019-05-09T07:00:31.495Z,11.72
2019-05-09T07:01:31.495Z,11.82
2019-05-09T07:02:31.385Z,11.84
2019-05-09T07:03:31.498Z,11.84
2019-05-09T07:04:31.434Z,11.95
2019-05-09T07:05:31.401Z,12.02
2019-05-09T07:06:31.441Z,12.03
2019-05-09T07:07:31.443Z,11.97
2019-05-09T07:08:31.591Z,11.95
2019-05-09T07:09:31.497Z,11.94
2019-05-09T07:10:31.513Z,11.94
2019-05-09T07:11:31.449Z,11.92
2019-05-09T07:12:31.441Z,11.89
2019-05-09T07:13:31.522Z,11.87
2019-05-09T07:14:33.254Z,11.83
2019-05-09T07:15:31.526Z,11.94
2019-05-09T07:16:31.519Z,12.03
2019-05-09T07:17:32.093Z,12.08
2019-05-09T07:18:31.451Z,12.09
2019-05-09T07:19:31.534Z,12.09
2019-05-09T07:20:31.451Z,12.13
2019-05-09T07:21:31.485Z,11.99
2019-05-09T07:22:31.518Z,11.80
2019-05-09T07:23:31.451Z,11.76
2019-05-09T07:24:31.531Z,11.78
2019-05-09T07:25:31.530Z,11.84
2019-05-09T07:26:31.530Z,11.89
2019-05-09T07:27:31.469Z,11.92
2019-05-09T07:28:31.525Z,11.94
2019-05-09T07:29:31.531Z,12.03
2019-05-09T07:30:31.477Z,12.20
2019-05-09T07:31:31.429Z,12.36
2019-05-09T07:32:31.416Z,12.55
2019-05-09T07:33:31.522Z,12.72
2019-05-09T07:34:31.523Z,12.86
2019-05-09T07:35:31.521Z,13.03
2019-05-09T07:36:31.407Z,13.10
2019-05-09T07:37:31.525Z,13.18
2019-05-09T07:38:31.480Z,13.21
2019-05-09T07:39:31.420Z,13.23
2019-05-09T07:40:31.451Z,13.20
2019-05-09T07:41:33.666Z,13.09
2019-05-09T07:42:31.453Z,13.03
2019-05-09T07:43:31.527Z,13.02
2019-05-09T07:44:45.391Z,12.89
2019-05-09T07:45:31.532Z,12.84
2019-05-09T07:46:31.533Z,12.80
2019-05-09T07:47:31.459Z,12.73
2019-05-09T07:48:31.536Z,12.53
2019-05-09T07:49:31.465Z,12.33
2019-05-09T07:50:31.461Z,12.29
2019-05-09T07:51:31.534Z,12.20
2019-05-09T07:52:31.503Z,12.39
2019-05-09T07:53:31.449Z,12.57
2019-05-09T07:54:31.460Z,12.72
2019-05-09T07:55:31.541Z,12.82
2019-05-09T07:56:31.467Z,12.94
2019-05-09T07:57:31.539Z,12.95
2019-05-09T07:58:31.538Z,12.75
2019-05-09T07:59:31.478Z,12.65
2019-05-09T08:00:31.426Z,12.87
2019-05-09T08:01:31.544Z,13.16
2019-05-09T08:02:31.544Z,13.47
2019-05-09T08:03:31.469Z,13.69
2019-05-09T08:04:31.482Z,13.73
2019-05-09T08:05:31.495Z,13.77
2019-05-09T08:06:31.545Z,13.76
2019-05-09T08:07:33.177Z,13.68
2019-05-09T08:08:31.515Z,13.79
2019-05-09T08:09:31.552Z,13.84
2019-05-09T08:10:33.244Z,13.70
2019-05-09T08:11:32.370Z,13.53
2019-05-09T08:12:31.547Z,13.39
2019-05-09T08:13:31.552Z,13.29
2019-05-09T08:14:31.495Z,13.27
2019-05-09T08:15:31.496Z,13.20
2019-05-09T08:16:31.496Z,13.16
2019-05-09T08:17:31.626Z,13.16
2019-05-09T08:19:31.576Z,13.35
2019-05-09T08:20:31.567Z,13.46
2019-05-09T08:21:31.462Z,13.49
2019-05-09T08:22:32.598Z,13.72
2019-05-09T08:23:31.568Z,13.75
2019-05-09T08:24:31.502Z,13.70
2019-05-09T08:25:31.575Z,13.72
2019-05-09T08:26:31.498Z,13.81
2019-05-09T08:27:31.573Z,13.75
2019-05-09T08:28:31.574Z,13.84
2019-05-09T08:29:31.572Z,14.18
2019-05-09T08:30:35.936Z,14.43
2019-05-09T08:31:31.492Z,14.43
2019-05-09T08:32:31.531Z,14.28
2019-05-09T08:33:31.519Z,14.35
2019-05-09T08:34:31.509Z,14.58
2019-05-09T08:35:31.538Z,14.69
2019-05-09T08:36:31.436Z,14.54
2019-05-09T08:37:31.523Z,14.44
2019-05-09T08:38:31.522Z,14.42
2019-05-09T08:39:31.468Z,14.53
2019-05-09T08:40:31.564Z,14.39
2019-05-09T08:41:31.600Z,14.07
2019-05-09T08:42:31.585Z,14.00
2019-05-09T08:43:31.519Z,13.89
2019-05-09T08:44:31.623Z,13.86
2019-05-09T08:45:31.803Z,13.83
2019-05-09T08:46:31.521Z,13.80
2019-05-09T08:47:31.591Z,13.86
2019-05-09T08:48:31.589Z,13.96
2019-05-09T08:49:31.586Z,14.03
2019-05-09T08:50:31.586Z,14.10
2019-05-09T08:51:37.354Z,14.07
2019-05-09T08:52:31.579Z,13.93
2019-05-09T08:53:31.585Z,13.91
2019-05-09T08:54:31.582Z,13.84
2019-05-09T08:55:31.577Z,13.75
2019-05-09T08:56:31.509Z,13.70
2019-05-09T08:57:31.604Z,13.59
2019-05-09T08:58:31.509Z,13.45
2019-05-09T08:59:31.580Z,13.40
2019-05-09T09:00:31.581Z,13.35
2019-05-09T09:01:50.236Z,13.46
2019-05-09T09:02:31.589Z,13.65
2019-05-09T09:03:31.520Z,14.02
2019-05-09T09:04:31.524Z,14.35
2019-05-09T09:05:31.551Z,14.66
2019-05-09T09:06:31.588Z,14.76
2019-05-09T09:07:31.590Z,14.72
2019-05-09T09:08:31.553Z,14.61
2019-05-09T09:09:31.514Z,14.62
2019-05-09T09:10:31.504Z,14.68
2019-05-09T09:11:31.605Z,14.61
2019-05-09T09:12:34.482Z,14.49
2019-05-09T09:13:31.544Z,14.38
2019-05-09T09:14:31.605Z,14.31
2019-05-09T09:15:56.295Z,14.14
2019-05-09T09:16:31.542Z,14.07
2019-05-09T09:17:31.535Z,13.84
2019-05-09T09:18:31.618Z,13.80
2019-05-09T09:19:31.544Z,13.61
2019-05-09T09:20:31.549Z,13.54
2019-05-09T09:21:31.500Z,13.56
2019-05-09T09:22:31.493Z,13.49
2019-05-09T09:23:43.349Z,13.45
2019-05-09T09:24:31.527Z,13.39
2019-05-09T09:25:31.615Z,13.29
2019-05-09T09:26:31.558Z,13.24
2019-05-09T09:27:31.628Z,13.29
2019-05-09T09:28:31.529Z,13.39
2019-05-09T09:29:31.491Z,13.45
2019-05-09T09:30:31.599Z,13.66
2019-05-09T09:31:31.615Z,13.96
2019-05-09T09:32:31.615Z,14.09
2019-05-09T09:33:31.613Z,14.35
2019-05-09T09:34:31.568Z,14.46
2019-05-09T09:35:31.624Z,14.55
2019-05-09T09:36:31.623Z,14.54
2019-05-09T09:37:45.006Z,14.54
2019-05-09T09:38:31.621Z,14.54
2019-05-09T09:39:31.563Z,14.55
2019-05-09T09:40:31.638Z,14.44
2019-05-09T09:41:31.542Z,14.39
2019-05-09T09:42:31.483Z,14.29
2019-05-09T09:43:31.574Z,14.31
2019-05-09T09:44:31.544Z,14.39
2019-05-09T09:45:31.549Z,14.46
2019-05-09T09:46:31.646Z,14.50
2019-05-09T09:47:31.483Z,14.53
2019-05-09T09:48:31.523Z,14.57
2019-05-09T09:49:31.594Z,14.53
2019-05-09T09:50:31.501Z,14.50
2019-05-09T09:51:31.574Z,14.38
2019-05-09T09:52:34.295Z,14.15
2019-05-09T09:53:31.572Z,13.91
2019-05-09T09:54:31.637Z,13.80
2019-05-09T09:55:31.565Z,13.83
2019-05-09T09:56:31.643Z,13.91
2019-05-09T09:57:31.568Z,14.07
2019-05-09T09:58:31.575Z,14.02
2019-05-09T09:59:31.580Z,13.96
2019-05-09T10:00:31.634Z,13.95
2019-05-09T10:01:31.630Z,13.99
2019-05-09T10:02:31.621Z,14.11
2019-05-09T10:03:31.603Z,14.33
2019-05-09T10:04:31.659Z,14.61
2019-05-09T10:05:31.561Z,14.96
2019-05-09T10:06:31.742Z,14.98
2019-05-09T10:07:31.567Z,14.87
2019-05-09T10:08:31.566Z,14.83
2019-05-09T10:09:31.641Z,14.71
2019-05-09T10:10:31.541Z,14.66
2019-05-09T10:12:31.666Z,14.71
2019-05-09T10:13:31.582Z,14.89
2019-05-09T10:14:31.646Z,15.06
2019-05-09T10:15:31.679Z,15.22
2019-05-09T10:16:32.701Z,15.29
2019-05-09T10:17:31.588Z,15.25
2019-05-09T10:18:31.588Z,15.17
2019-05-09T10:19:31.583Z,14.98
2019-05-09T10:20:31.584Z,14.87
2019-05-09T10:21:31.556Z,14.86
2019-05-09T10:22:31.667Z,14.83
2019-05-09T10:23:31.579Z,14.76
2019-05-09T10:24:31.646Z,14.82
2019-05-09T10:25:31.678Z,14.83
2019-05-09T10:26:31.561Z,14.62
2019-05-09T10:27:31.574Z,14.60
2019-05-09T10:28:31.574Z,14.68
2019-05-09T10:29:31.575Z,14.66
2019-05-09T10:30:31.580Z,14.62
2019-05-09T10:31:31.590Z,14.73
2019-05-09T10:32:31.594Z,14.92
2019-05-09T10:33:31.662Z,15.17
2019-05-09T10:34:31.606Z,15.57
2019-05-09T10:35:31.599Z,15.86
2019-05-09T10:36:31.645Z,16.11
2019-05-09T10:37:31.633Z,16.25
2019-05-09T10:38:31.603Z,16.29
2019-05-09T10:39:31.595Z,16.25
2019-05-09T10:40:31.681Z,16.18
2019-05-09T10:41:31.604Z,16.00
2019-05-09T10:42:31.613Z,16.07
2019-05-09T10:43:37.855Z,16.07
2019-05-09T10:44:31.672Z,16.18
2019-05-09T10:45:31.686Z,15.77
2019-05-09T10:46:48.395Z,15.86
2019-05-09T10:47:31.671Z,16.00
2019-05-09T10:48:31.702Z,16.28
2019-05-09T10:49:31.609Z,16.63
2019-05-09T10:50:34.355Z,17.03
2019-05-09T10:51:31.679Z,17.28
2019-05-09T10:52:31.631Z,17.22
2019-05-09T10:53:31.678Z,17.05
2019-05-09T10:54:31.686Z,16.92
2019-05-09T10:55:31.605Z,16.94
2019-05-09T10:56:31.657Z,17.01
2019-05-09T10:57:32.663Z,16.97
2019-05-09T10:58:31.682Z,16.99
2019-05-09T10:59:31.615Z,16.84
2019-05-09T11:00:31.624Z,16.62
2019-05-09T11:01:31.690Z,16.63
2019-05-09T11:02:31.778Z,16.72
2019-05-09T11:03:31.612Z,16.84
2019-05-09T11:04:31.623Z,17.01
2019-05-09T11:05:31.685Z,17.13
2019-05-09T11:06:31.697Z,17.29
2019-05-09T11:07:31.704Z,17.46
2019-05-09T11:08:31.699Z,17.39
2019-05-09T11:09:31.624Z,17.39
2019-05-09T11:10:32.789Z,17.49
2019-05-09T11:11:31.572Z,17.36
2019-05-09T11:12:31.571Z,16.98
2019-05-09T11:13:31.650Z,16.66
2019-05-09T11:14:36.895Z,16.28
2019-05-09T11:15:31.557Z,16.18
2019-05-09T11:16:41.909Z,16.13
2019-05-09T11:17:31.625Z,16.05
2019-05-09T11:18:31.679Z,15.86
2019-05-09T11:19:31.677Z,15.80
2019-05-09T11:20:31.569Z,15.68
2019-05-09T11:21:31.696Z,15.79
2019-05-09T11:22:31.697Z,15.88
2019-05-09T11:23:31.715Z,15.79
2019-05-09T11:24:45.484Z,15.84
2019-05-09T11:25:31.701Z,15.91
2019-05-09T11:26:31.635Z,15.82
2019-05-09T11:27:31.701Z,15.84
2019-05-09T11:28:31.643Z,15.79
2019-05-09T11:29:31.708Z,15.88
2019-05-09T11:30:31.639Z,16.05
2019-05-09T11:31:31.630Z,16.18
2019-05-09T11:32:31.625Z,16.10
2019-05-09T11:33:31.626Z,16.13
2019-05-09T11:34:31.626Z,16.22
2019-05-09T11:35:31.699Z,16.31
2019-05-09T11:36:31.612Z,16.38
2019-05-09T11:37:31.663Z,16.41
2019-05-09T11:38:37.136Z,16.28
2019-05-09T11:39:38.689Z,16.22
2019-05-09T11:40:31.698Z,16.22
2019-05-09T11:41:31.715Z,16.29
2019-05-09T11:42:33.559Z,16.39
2019-05-09T11:43:31.604Z,16.57
2019-05-09T11:44:31.728Z,16.80
2019-05-09T11:45:31.649Z,16.98
2019-05-09T11:46:31.733Z,17.02
2019-05-09T11:47:37.922Z,16.95
2019-05-09T11:48:31.717Z,17.06
2019-05-09T11:49:31.717Z,17.05
2019-05-09T11:50:31.650Z,16.98
2019-05-09T11:51:31.720Z,16.90
2019-05-09T11:52:31.652Z,16.98
2019-05-09T11:53:31.672Z,17.21
2019-05-09T11:54:31.726Z,17.32
2019-05-09T11:55:35.913Z,17.12
2019-05-09T11:56:31.726Z,16.94
2019-05-09T11:57:31.755Z,16.80
2019-05-09T11:58:31.660Z,16.69
2019-05-09T11:59:31.724Z,16.66
2019-05-09T12:00:31.730Z,16.65
2019-05-09T12:01:31.710Z,16.73
2019-05-09T12:02:31.623Z,16.76
2019-05-09T12:03:31.675Z,16.79
2019-05-09T12:04:31.679Z,16.84
2019-05-09T12:05:31.660Z,16.87
2019-05-09T12:06:31.649Z,16.91
2019-05-09T12:07:31.711Z,16.77
2019-05-09T12:08:31.652Z,16.77
2019-05-09T12:09:31.688Z,16.70
2019-05-09T12:10:31.629Z,16.77
2019-05-09T12:11:31.652Z,16.85
2019-05-09T12:12:31.602Z,16.91
2019-05-09T12:13:31.634Z,16.87
2019-05-09T12:14:31.718Z,16.83
2019-05-09T12:15:31.653Z,16.76
2019-05-09T12:16:31.728Z,16.77
2019-05-09T12:17:49.736Z,16.79
2019-05-09T12:18:31.731Z,16.68
2019-05-09T12:19:31.646Z,16.61
2019-05-09T12:20:31.643Z,16.68
2019-05-09T12:21:31.657Z,16.76
2019-05-09T12:22:31.724Z,16.85
2019-05-09T12:23:31.599Z,16.90
2019-05-09T12:24:31.649Z,16.76
2019-05-09T12:25:31.661Z,16.72
2019-05-09T12:26:31.717Z,16.80
2019-05-09T12:27:31.610Z,16.87
2019-05-09T12:28:31.612Z,17.01
2019-05-09T12:29:31.715Z,17.08
2019-05-09T12:30:31.649Z,17.13
2019-05-09T12:31:31.574Z,17.12
2019-05-09T12:32:31.697Z,17.08
2019-05-09T12:33:33.326Z,16.99
2019-05-09T12:34:31.689Z,16.83
2019-05-09T12:35:31.668Z,16.85
2019-05-09T12:36:31.628Z,16.84
2019-05-09T12:37:31.690Z,16.77
2019-05-09T12:38:31.676Z,16.84
2019-05-09T12:39:31.645Z,16.91
2019-05-09T12:40:31.659Z,16.84
2019-05-09T12:41:32.035Z,16.79
2019-05-09T12:42:31.755Z,16.80
2019-05-09T12:43:31.703Z,16.59
2019-05-09T12:44:31.690Z,16.39
2019-05-09T12:45:31.692Z,16.25
2019-05-09T12:46:31.758Z,16.20
2019-05-09T12:47:31.758Z,16.09
2019-05-09T12:48:31.783Z,15.99
2019-05-09T12:49:31.760Z,15.84
2019-05-09T12:50:31.657Z,15.64
2019-05-09T12:51:31.636Z,15.53
2019-05-09T12:52:31.638Z,15.39
2019-05-09T12:53:31.703Z,15.33
2019-05-09T12:54:31.679Z,15.29
2019-05-09T12:55:31.661Z,15.24
2019-05-09T12:56:31.668Z,15.17
2019-05-09T12:57:31.745Z,15.10
2019-05-09T12:58:31.791Z,15.07
2019-05-09T12:59:45.544Z,15.06
2019-05-09T13:00:31.697Z,15.03
2019-05-09T13:01:31.752Z,14.96
2019-05-09T13:02:31.671Z,14.89
2019-05-09T13:03:31.726Z,14.87
2019-05-09T13:04:31.730Z,14.83